createdAt,value
2018-08-22T00:00:50.656Z,4.00
2018-08-22T00:03:21.080Z,3.93
2018-08-22T00:05:50.800Z,4.30
2018-08-22T00:08:53.210Z,4.03
2018-08-22T00:11:23.292Z,4.30
2018-08-22T00:13:53.374Z,4.23
2018-08-22T00:16:23.140Z,4.57
2018-08-22T00:18:53.016Z,4.33
2018-08-22T00:21:22.808Z,4.03
2018-08-22T00:23:52.604Z,4.00
2018-08-22T00:26:22.703Z,3.90
2018-08-22T00:28:52.755Z,4.83
2018-08-22T00:31:22.722Z,4.20
2018-08-22T00:33:52.815Z,3.73
2018-08-22T00:36:22.931Z,4.47
2018-08-22T00:38:52.746Z,4.50
2018-08-22T00:41:22.658Z,4.10
2018-08-22T00:43:53.132Z,3.90
2018-08-22T00:46:23.127Z,4.10
2018-08-22T00:48:53.052Z,4.20
2018-08-22T00:51:22.755Z,4.17
2018-08-22T00:53:52.719Z,4.37
2018-08-22T00:56:22.650Z,4.10
2018-08-22T00:58:52.740Z,4.03
2018-08-22T01:01:22.609Z,3.57
2018-08-22T01:03:52.702Z,3.67
2018-08-22T01:06:22.731Z,3.73
2018-08-22T01:08:52.619Z,4.10
2018-08-22T01:11:22.709Z,4.33
2018-08-22T01:13:52.644Z,3.80
2018-08-22T01:16:22.723Z,3.87
2018-08-22T01:18:52.663Z,4.20
2018-08-22T01:21:22.728Z,4.60
2018-08-22T01:23:52.745Z,3.63
2018-08-22T01:26:22.729Z,4.20
2018-08-22T01:28:52.803Z,4.60
2018-08-22T01:31:22.995Z,5.00
2018-08-22T01:33:52.740Z,3.97
2018-08-22T01:36:22.747Z,3.57
2018-08-22T01:38:52.639Z,4.13
2018-08-22T01:41:22.761Z,4.43
2018-08-22T01:43:52.669Z,3.57
2018-08-22T01:46:22.721Z,4.40
2018-08-22T01:48:52.652Z,4.10
2018-08-22T01:51:22.579Z,4.30
2018-08-22T01:53:52.652Z,3.62
2018-08-22T01:56:22.605Z,4.27
2018-08-22T01:58:56.563Z,3.90
2018-08-22T02:01:26.614Z,3.97
2018-08-22T02:03:56.716Z,4.10
2018-08-22T02:06:26.648Z,4.10
2018-08-22T02:08:56.648Z,3.57
2018-08-22T02:11:26.734Z,4.47
2018-08-22T02:13:56.746Z,4.55
2018-08-22T02:16:26.717Z,3.97
2018-08-22T02:18:56.809Z,4.28
2018-08-22T02:21:26.544Z,4.20
2018-08-22T02:23:56.323Z,3.97
2018-08-22T02:26:26.395Z,4.10
2018-08-22T02:28:56.125Z,4.20
2018-08-22T02:31:25.998Z,4.37
2018-08-22T02:33:55.770Z,4.43
2018-08-22T02:36:25.601Z,4.33
2018-08-22T02:38:55.351Z,4.60
2018-08-22T02:41:25.331Z,4.33
2018-08-22T02:43:55.547Z,4.22
2018-08-22T02:46:25.258Z,3.90
2018-08-22T02:48:55.077Z,4.70
2018-08-22T02:51:26.340Z,4.33
2018-08-22T02:53:56.777Z,3.94
2018-08-22T02:56:27.680Z,4.25
2018-08-22T02:58:58.521Z,4.17
2018-08-22T03:01:29.692Z,4.00
2018-08-22T03:04:00.609Z,4.45
2018-08-22T03:06:31.381Z,3.92
2018-08-22T03:09:02.821Z,4.20
2018-08-22T03:11:33.541Z,4.20
2018-08-22T03:14:04.823Z,3.60
2018-08-22T03:16:35.688Z,3.90
2018-08-22T03:19:06.811Z,3.60
2018-08-22T03:21:37.533Z,4.17
2018-08-22T03:24:08.766Z,4.38
2018-08-22T03:26:39.501Z,3.98
2018-08-22T03:29:10.720Z,3.92
2018-08-22T03:31:42.185Z,4.55
2018-08-22T03:34:12.022Z,4.00
2018-08-22T03:36:42.645Z,4.17
2018-08-22T03:39:13.717Z,3.95
2018-08-22T03:41:44.446Z,4.08
2018-08-22T03:44:15.810Z,4.04
2018-08-22T03:46:46.533Z,3.90
2018-08-22T03:49:17.780Z,3.74
2018-08-22T03:51:48.480Z,3.80
2018-08-22T03:54:19.779Z,3.80
2018-08-22T03:56:50.477Z,4.15
2018-08-22T03:59:21.724Z,4.16
2018-08-22T04:01:52.452Z,4.28
2018-08-22T04:04:23.800Z,3.90
2018-08-22T04:06:54.520Z,3.95
2018-08-22T04:09:25.813Z,4.58
2018-08-22T04:11:56.554Z,3.65
2018-08-22T04:14:27.830Z,4.50
2018-08-22T04:16:58.544Z,4.65
2018-08-22T04:19:29.786Z,4.82
2018-08-22T04:22:01.012Z,4.25
2018-08-22T04:24:31.955Z,4.90
2018-08-22T04:27:02.617Z,4.83
2018-08-22T04:29:33.869Z,4.33
2018-08-22T04:32:05.713Z,5.00
2018-08-22T04:34:35.596Z,5.00
2018-08-22T04:37:06.816Z,4.84
2018-08-22T04:39:37.740Z,5.20
2018-08-22T04:42:08.449Z,4.40
2018-08-22T04:44:39.960Z,5.50
2018-08-22T04:47:10.777Z,5.17
2018-08-22T04:49:41.655Z,5.10
2018-08-22T04:52:12.761Z,5.45
2018-08-22T04:54:43.597Z,5.40
2018-08-22T04:57:14.455Z,5.30
2018-08-22T04:59:45.848Z,5.36
2018-08-22T05:02:16.588Z,5.00
2018-08-22T05:04:47.496Z,5.03
2018-08-22T05:07:18.651Z,5.44
2018-08-22T05:09:49.565Z,6.12
2018-08-22T05:12:20.390Z,7.75
2018-08-22T05:14:53.533Z,6.30
2018-08-22T05:17:23.240Z,6.10
2018-08-22T05:19:53.707Z,6.20
2018-08-22T05:22:24.492Z,5.70
2018-08-22T05:24:55.681Z,5.92
2018-08-22T05:27:27.066Z,5.10
2018-08-22T05:29:57.706Z,5.42
2018-08-22T05:32:29.060Z,4.05
2018-08-22T05:34:59.902Z,3.98
2018-08-22T05:37:30.948Z,4.28
2018-08-22T05:40:01.743Z,3.60
2018-08-22T05:42:32.516Z,4.42
2018-08-22T05:45:04.005Z,4.50
2018-08-22T05:47:34.869Z,3.83
2018-08-22T05:50:06.084Z,4.70
2018-08-22T05:52:36.748Z,4.17
2018-08-22T05:55:07.451Z,4.65
2018-08-22T05:57:39.112Z,4.14
2018-08-22T06:00:09.649Z,3.95
2018-08-22T06:02:40.785Z,4.33
2018-08-22T06:05:10.504Z,3.80
2018-08-22T06:07:41.738Z,4.22
2018-08-22T06:10:12.471Z,3.90
2018-08-22T06:12:43.898Z,4.12
2018-08-22T06:15:15.230Z,3.80
2018-08-22T06:17:45.845Z,4.08
2018-08-22T06:20:16.685Z,4.10
2018-08-22T06:22:48.038Z,3.83
2018-08-22T06:25:18.625Z,3.30
2018-08-22T06:27:49.474Z,3.30
2018-08-22T06:30:20.508Z,3.58
2018-08-22T06:32:51.405Z,3.47
2018-08-22T06:35:22.500Z,3.50
2018-08-22T06:37:53.624Z,3.68
2018-08-22T06:40:24.213Z,3.62
2018-08-22T06:42:55.542Z,3.80
2018-08-22T06:45:26.464Z,4.74
2018-08-22T06:47:58.989Z,5.68
2018-08-22T06:50:28.498Z,7.03
2018-08-22T06:52:59.625Z,6.95
2018-08-22T06:55:30.085Z,7.60
2018-08-22T06:58:01.397Z,5.70
2018-08-22T07:00:32.598Z,4.88
2018-08-22T07:03:03.277Z,4.20
2018-08-22T07:05:34.613Z,4.12
2018-08-22T07:08:05.583Z,3.90
2018-08-22T07:10:36.241Z,4.60
2018-08-22T07:13:07.537Z,4.25
2018-08-22T07:15:38.333Z,3.70
2018-08-22T07:18:09.829Z,4.30
2018-08-22T07:20:40.426Z,4.03
2018-08-22T07:23:11.846Z,3.80
2018-08-22T07:25:42.371Z,4.10
2018-08-22T07:28:13.700Z,2.98
2018-08-22T07:30:44.373Z,3.40
2018-08-22T07:33:15.612Z,3.56
2018-08-22T07:35:46.155Z,3.12
2018-08-22T07:38:17.473Z,3.62
2018-08-22T07:40:48.108Z,3.25
2018-08-22T07:43:19.723Z,2.00
2018-08-22T07:45:50.160Z,1.80
2018-08-22T07:48:21.546Z,1.65
2018-08-22T07:50:52.057Z,1.70
2018-08-22T07:53:23.475Z,1.70
2018-08-22T07:55:54.306Z,1.77
2018-08-22T07:58:25.493Z,1.58
2018-08-22T08:00:56.417Z,1.82
2018-08-22T08:03:27.428Z,2.12
2018-08-22T08:05:58.400Z,1.80
2018-08-22T08:08:29.474Z,1.96
2018-08-22T08:11:00.495Z,1.76
2018-08-22T08:13:31.393Z,2.00
2018-08-22T08:16:01.615Z,2.64
2018-08-22T08:18:32.342Z,1.57
2018-08-22T08:21:04.467Z,1.82
2018-08-22T08:23:34.254Z,1.55
2018-08-22T08:26:05.644Z,1.68
2018-08-22T08:28:36.406Z,1.47
2018-08-22T08:31:07.630Z,1.58
2018-08-22T08:33:38.401Z,1.45
2018-08-22T08:36:09.580Z,1.70
2018-08-22T08:38:40.296Z,1.10
2018-08-22T08:41:11.418Z,1.38
2018-08-22T08:43:42.717Z,1.40
2018-08-22T08:46:13.173Z,1.62
2018-08-22T08:48:44.538Z,1.70
2018-08-22T08:51:15.132Z,1.95
2018-08-22T08:53:46.765Z,1.75
2018-08-22T08:56:17.326Z,1.60
2018-08-22T08:58:48.513Z,1.98
2018-08-22T09:01:19.231Z,1.50
2018-08-22T09:03:50.713Z,1.62
2018-08-22T09:06:21.530Z,1.72
2018-08-22T09:08:52.145Z,1.60
2018-08-22T09:11:23.471Z,1.82
2018-08-22T09:13:58.276Z,1.90
2018-08-22T09:16:27.839Z,2.17
2018-08-22T09:18:57.358Z,2.08
2018-08-22T09:21:27.523Z,1.88
2018-08-22T09:23:58.181Z,1.87
2018-08-22T09:26:29.421Z,1.80
2018-08-22T09:29:00.420Z,1.68
2018-08-22T09:31:30.921Z,1.50
2018-08-22T09:34:01.445Z,1.98
2018-08-22T09:36:32.676Z,1.90
2018-08-22T09:39:03.301Z,2.00
2018-08-22T09:41:34.868Z,1.94
2018-08-22T09:44:05.663Z,2.30
2018-08-22T09:46:36.419Z,2.30
2018-08-22T09:49:07.286Z,1.85
2018-08-22T09:51:38.488Z,1.50
2018-08-22T09:54:09.550Z,1.82
2018-08-22T09:56:40.189Z,1.80
2018-08-22T09:59:11.393Z,1.60
2018-08-22T10:01:43.096Z,2.20
2018-08-22T10:04:13.365Z,1.90
2018-08-22T10:06:46.590Z,2.08
2018-08-22T10:09:20.877Z,1.80
2018-08-22T10:11:50.498Z,2.12
2018-08-22T10:14:20.080Z,2.20
2018-08-22T10:16:50.212Z,1.80
2018-08-22T10:19:19.750Z,2.00
2018-08-22T10:21:50.389Z,2.08
2018-08-22T10:24:21.412Z,1.90
2018-08-22T10:26:52.394Z,1.80
2018-08-22T10:29:23.253Z,1.70
2018-08-22T10:31:53.946Z,2.08
2018-08-22T10:34:24.813Z,2.22
2018-08-22T10:36:55.253Z,1.90
2018-08-22T10:39:26.714Z,1.98
2018-08-22T10:41:57.409Z,2.12
2018-08-22T10:44:28.530Z,1.90
2018-08-22T10:46:59.163Z,2.33
2018-08-22T10:49:30.406Z,1.75
2018-08-22T10:52:01.509Z,2.16
2018-08-22T10:54:32.189Z,1.95
2018-08-22T10:57:03.357Z,2.60
2018-08-22T10:59:34.585Z,2.20
2018-08-22T11:02:05.238Z,2.45
2018-08-22T11:04:36.528Z,1.74
2018-08-22T11:07:07.125Z,1.90
2018-08-22T11:09:38.800Z,2.08
2018-08-22T11:12:09.296Z,2.08
2018-08-22T11:14:40.601Z,2.16
2018-08-22T11:17:11.089Z,1.90
2018-08-22T11:19:42.220Z,2.30
2018-08-22T11:22:24.280Z,3.80
2018-08-22T11:25:04.734Z,1.97
2018-08-22T11:27:45.330Z,2.20
2018-08-22T11:30:25.665Z,1.70
2018-08-22T11:33:06.167Z,1.90
2018-08-22T11:35:34.086Z,2.20
2018-08-22T11:38:03.560Z,2.03
2018-08-22T11:40:33.465Z,2.10
2018-08-22T11:43:02.941Z,2.17
2018-08-22T11:45:32.496Z,1.93
2018-08-22T11:48:02.120Z,2.00
2018-08-22T11:50:31.593Z,1.77
2018-08-22T11:53:01.645Z,2.03
2018-08-22T11:55:31.510Z,2.00
2018-08-22T11:58:01.428Z,2.40
2018-08-22T12:00:31.004Z,2.03
2018-08-22T12:03:00.712Z,1.90
2018-08-22T12:05:30.452Z,2.07
2018-08-22T12:08:00.056Z,1.80
2018-08-22T12:10:31.502Z,2.00
2018-08-22T12:13:03.452Z,2.53
2018-08-22T12:15:34.138Z,1.70
2018-08-22T12:18:03.895Z,2.03
2018-08-22T12:20:33.565Z,2.20
2018-08-22T12:23:03.605Z,2.20
2018-08-22T12:25:33.308Z,2.00
2018-08-22T12:28:03.134Z,2.00
2018-08-22T12:30:32.816Z,2.40
2018-08-22T12:33:02.765Z,2.10
2018-08-22T12:35:32.601Z,2.23
2018-08-22T12:38:02.397Z,2.30
2018-08-22T12:40:31.990Z,2.33
2018-08-22T12:43:01.790Z,2.40
2018-08-22T12:45:31.803Z,2.10
2018-08-22T12:48:01.495Z,2.10
2018-08-22T12:50:31.466Z,2.45
2018-08-22T12:53:01.128Z,2.60
2018-08-22T12:55:30.780Z,2.63
2018-08-22T12:58:00.867Z,2.52
2018-08-22T13:00:30.440Z,2.00
2018-08-22T13:03:00.445Z,2.60
2018-08-22T13:05:30.306Z,2.40
2018-08-22T13:08:00.094Z,2.20
2018-08-22T13:10:30.472Z,2.65
2018-08-22T13:13:00.529Z,2.40
2018-08-22T13:15:30.327Z,2.30
2018-08-22T13:18:00.425Z,2.87
2018-08-22T13:20:30.401Z,2.30
2018-08-22T13:23:01.990Z,2.20
2018-08-22T13:25:32.816Z,2.17
2018-08-22T13:28:03.660Z,2.27
2018-08-22T13:30:34.889Z,2.65
2018-08-22T13:33:05.776Z,2.62
2018-08-22T13:35:36.975Z,2.10
2018-08-22T13:38:07.929Z,2.52
2018-08-22T13:40:38.630Z,2.50
2018-08-22T13:43:09.677Z,2.70
2018-08-22T13:45:40.494Z,2.92
2018-08-22T13:48:11.545Z,2.72
2018-08-22T13:50:42.755Z,2.60
2018-08-22T13:53:13.741Z,2.65
2018-08-22T13:55:44.587Z,2.42
2018-08-22T13:58:15.729Z,2.47
2018-08-22T14:00:46.484Z,2.20
2018-08-22T14:03:17.804Z,2.50
2018-08-22T14:05:48.593Z,2.52
2018-08-22T14:08:19.570Z,2.55
2018-08-22T14:10:50.421Z,2.45
2018-08-22T14:13:21.941Z,2.86
2018-08-22T14:15:52.802Z,2.67
2018-08-22T14:18:23.629Z,3.17
2018-08-22T14:20:54.562Z,2.72
2018-08-22T14:23:25.577Z,2.47
2018-08-22T14:25:56.547Z,3.12
2018-08-22T14:28:27.645Z,2.47
2018-08-22T14:30:58.500Z,2.75
2018-08-22T14:33:36.476Z,2.90
2018-08-22T14:36:06.688Z,2.80
2018-08-22T14:38:36.662Z,2.80
2018-08-22T14:41:06.569Z,3.30
2018-08-22T14:43:36.415Z,2.65
2018-08-22T14:46:06.328Z,2.60
2018-08-22T14:48:36.601Z,2.47
2018-08-22T14:51:07.107Z,3.00
2018-08-22T14:53:36.957Z,2.80
2018-08-22T14:56:07.852Z,2.37
2018-08-22T14:58:38.839Z,3.20
2018-08-22T15:01:09.621Z,2.65
2018-08-22T15:03:40.590Z,2.52
2018-08-22T15:06:11.436Z,2.90
2018-08-22T15:08:42.705Z,2.58
2018-08-22T15:11:13.482Z,2.85
2018-08-22T15:13:44.973Z,2.90
2018-08-22T15:16:15.801Z,2.67
2018-08-22T15:18:46.774Z,3.05
2018-08-22T15:21:17.583Z,3.33
2018-08-22T15:23:48.557Z,2.90
2018-08-22T15:26:19.451Z,3.00
2018-08-22T15:28:50.491Z,2.75
2018-08-22T15:31:21.430Z,2.80
2018-08-22T15:33:53.135Z,2.90
2018-08-22T15:36:25.728Z,2.66
2018-08-22T15:38:55.717Z,3.00
2018-08-22T15:41:25.489Z,3.00
2018-08-22T15:43:56.921Z,3.02
2018-08-22T15:46:27.660Z,3.17
2018-08-22T15:48:58.532Z,3.30
2018-08-22T15:51:29.312Z,3.22
2018-08-22T15:54:17.891Z,3.12
2018-08-22T15:56:47.884Z,2.23
2018-08-22T15:59:19.845Z,2.50
2018-08-22T16:01:49.918Z,3.50
2018-08-22T16:04:20.030Z,2.80
2018-08-22T16:07:21.764Z,3.20
2018-08-22T16:09:51.640Z,3.17
2018-08-22T16:12:21.753Z,3.20
2018-08-22T16:14:51.629Z,2.80
2018-08-22T16:17:21.835Z,2.80
2018-08-22T16:19:52.102Z,2.50
2018-08-22T16:22:21.942Z,2.73
2018-08-22T16:24:52.703Z,2.30
2018-08-22T16:27:22.773Z,2.70
2018-08-22T16:29:53.042Z,3.70
2018-08-22T16:32:23.050Z,3.80
2018-08-22T16:34:52.987Z,3.70
2018-08-22T16:37:28.069Z,3.20
2018-08-22T16:39:57.874Z,2.80
2018-08-22T16:42:32.719Z,3.00
2018-08-22T16:45:02.889Z,4.57
2018-08-22T16:47:35.677Z,3.60
2018-08-22T16:50:07.416Z,2.87
2018-08-22T16:52:37.732Z,4.20
2018-08-22T16:55:21.913Z,4.20
2018-08-22T16:57:52.389Z,4.20
2018-08-22T17:00:36.726Z,3.40
2018-08-22T17:03:08.196Z,3.57
2018-08-22T17:05:37.949Z,5.60
2018-08-22T17:08:08.134Z,4.60
2018-08-22T17:10:51.534Z,4.47
2018-08-22T17:13:30.563Z,8.20
2018-08-22T17:16:02.471Z,9.57
2018-08-22T17:18:32.221Z,5.70
2018-08-22T17:21:01.959Z,3.60
2018-08-22T17:23:31.812Z,3.10
2018-08-22T17:26:01.680Z,3.00
2018-08-22T17:28:36.626Z,3.87
2018-08-22T17:31:06.617Z,9.17
2018-08-22T17:33:38.856Z,10.60
2018-08-22T17:36:09.921Z,9.47
2018-08-22T17:38:41.980Z,6.93
2018-08-22T17:41:11.733Z,4.70
2018-08-22T17:43:57.680Z,4.73
2018-08-22T17:46:29.521Z,5.63
2018-08-22T17:48:59.529Z,5.67
2018-08-22T17:51:29.502Z,5.90
2018-08-22T17:53:59.358Z,5.50
2018-08-22T17:56:29.205Z,5.33
2018-08-22T17:58:58.945Z,4.90
2018-08-22T18:01:30.366Z,4.20
2018-08-22T18:04:00.087Z,4.20
2018-08-22T18:06:30.505Z,4.70
2018-08-22T18:09:01.196Z,4.93
2018-08-22T18:11:30.920Z,6.07
2018-08-22T18:14:00.760Z,6.10
2018-08-22T18:16:30.881Z,5.27
2018-08-22T18:19:00.842Z,4.90
2018-08-22T18:21:46.857Z,3.77
2018-08-22T18:24:16.881Z,4.30
2018-08-22T18:26:48.553Z,5.60
2018-08-22T18:29:18.850Z,5.90
2018-08-22T18:31:48.852Z,11.10
2018-08-22T18:34:18.821Z,12.00
2018-08-22T18:36:49.046Z,15.33
2018-08-22T18:39:18.947Z,18.33
2018-08-22T18:41:48.714Z,16.13
2018-08-22T18:44:18.937Z,16.87
2018-08-22T18:46:48.834Z,14.50
2018-08-22T18:49:18.780Z,8.90
2018-08-22T18:51:48.821Z,8.47
2018-08-22T18:54:19.216Z,6.97
2018-08-22T18:56:49.196Z,6.67
2018-08-22T18:59:26.537Z,6.10
2018-08-22T19:01:56.616Z,6.17
2018-08-22T19:04:27.216Z,5.80
2018-08-22T19:06:57.057Z,6.27
2018-08-22T19:09:26.877Z,5.57
2018-08-22T19:11:59.890Z,5.93
2018-08-22T19:14:40.318Z,5.73
2018-08-22T19:17:10.070Z,6.00
2018-08-22T19:19:43.946Z,6.00
2018-08-22T19:22:15.711Z,5.33
2018-08-22T19:25:03.263Z,5.50
2018-08-22T19:27:34.501Z,4.60
2018-08-22T19:30:07.224Z,5.67
2018-08-22T19:32:37.686Z,5.00
2018-08-22T19:35:07.797Z,5.45
2018-08-22T19:37:37.804Z,4.37
2018-08-22T19:40:09.960Z,3.87
2018-08-22T19:42:41.004Z,3.60
2018-08-22T19:45:11.039Z,3.63
2018-08-22T19:47:41.248Z,4.07
2018-08-22T19:50:11.023Z,3.10
2018-08-22T19:52:40.757Z,3.63
2018-08-22T19:55:11.120Z,3.80
2018-08-22T19:57:41.996Z,3.40
2018-08-22T20:00:14.155Z,3.67
2018-08-22T20:02:44.106Z,3.20
2018-08-22T20:05:14.354Z,3.20
2018-08-22T20:07:44.489Z,3.27
2018-08-22T20:10:14.293Z,3.13
2018-08-22T20:12:52.106Z,3.07
2018-08-22T20:15:22.058Z,3.03
2018-08-22T20:17:53.064Z,3.10
2018-08-22T20:20:23.141Z,2.70
2018-08-22T20:22:55.100Z,2.93
2018-08-22T20:25:25.189Z,3.23
2018-08-22T20:27:54.984Z,3.10
2018-08-22T20:30:24.852Z,3.00
2018-08-22T20:33:00.121Z,3.57
2018-08-22T20:35:34.122Z,3.27
2018-08-22T20:38:07.127Z,3.30
2018-08-22T20:40:37.254Z,3.33
2018-08-22T20:43:08.218Z,3.43
2018-08-22T20:45:38.804Z,3.33
2018-08-22T20:48:13.627Z,3.00
2018-08-22T20:50:45.195Z,3.23
2018-08-22T20:53:18.190Z,3.20
2018-08-22T20:55:48.004Z,2.83
2018-08-22T20:58:36.098Z,3.43
2018-08-22T21:01:06.474Z,3.00
2018-08-22T21:03:36.180Z,3.00
2018-08-22T21:06:11.070Z,3.47
2018-08-22T21:08:41.081Z,3.35
2018-08-22T21:11:11.148Z,3.23
2018-08-22T21:13:41.513Z,3.50
2018-08-22T21:16:11.360Z,3.57
2018-08-22T21:18:41.264Z,2.83
2018-08-22T21:21:27.681Z,3.30
2018-08-22T21:24:04.536Z,3.13
2018-08-22T21:26:41.263Z,2.97
2018-08-22T21:29:11.453Z,2.83
2018-08-22T21:31:41.193Z,3.40
2018-08-22T21:34:16.084Z,3.20
2018-08-22T21:36:46.794Z,3.20
2018-08-22T21:39:21.637Z,3.50
2018-08-22T21:41:51.932Z,3.53
2018-08-22T21:44:23.308Z,2.93
2018-08-22T21:47:01.445Z,3.23
2018-08-22T21:49:31.433Z,3.60
2018-08-22T21:52:02.197Z,3.17
2018-08-22T21:54:32.016Z,3.53
2018-08-22T21:57:01.778Z,4.13
2018-08-22T21:59:31.700Z,3.40
2018-08-22T22:02:07.034Z,3.60
2018-08-22T22:04:38.552Z,3.53
2018-08-22T22:07:10.779Z,3.30
2018-08-22T22:09:41.194Z,3.83
2018-08-22T22:12:16.028Z,4.10
2018-08-22T22:14:46.520Z,4.27
2018-08-22T22:17:16.375Z,4.40
2018-08-22T22:19:46.134Z,4.47
2018-08-22T22:22:15.856Z,5.07
2018-08-22T22:24:51.170Z,3.90
2018-08-22T22:27:21.073Z,4.17
2018-08-22T22:29:52.495Z,4.53
2018-08-22T22:32:22.681Z,4.53
2018-08-22T22:34:52.734Z,4.60
2018-08-22T22:37:22.936Z,4.33
2018-08-22T22:39:52.706Z,5.13
2018-08-22T22:42:27.980Z,4.57
2018-08-22T22:44:58.855Z,4.97
2018-08-22T22:47:30.846Z,4.67
2018-08-22T22:50:01.316Z,4.87
2018-08-22T22:52:36.979Z,5.27
2018-08-22T22:55:07.759Z,5.10
2018-08-22T22:57:39.037Z,4.83
2018-08-22T23:00:12.599Z,5.83
2018-08-22T23:02:42.904Z,5.27
2018-08-22T23:05:12.727Z,5.17
2018-08-22T23:07:43.607Z,4.90
2018-08-22T23:10:15.503Z,5.12
2018-08-22T23:12:46.975Z,5.20
2018-08-22T23:15:19.079Z,4.87
2018-08-22T23:17:50.747Z,4.63
2018-08-22T23:20:45.252Z,4.80
2018-08-22T23:23:31.921Z,5.37
2018-08-22T23:26:07.936Z,5.37
2018-08-22T23:28:37.770Z,5.90
2018-08-22T23:31:07.635Z,4.83
2018-08-22T23:33:37.593Z,5.43
2018-08-22T23:36:07.600Z,5.58
2018-08-22T23:38:39.252Z,5.60
2018-08-22T23:41:08.955Z,5.40
2018-08-22T23:43:44.495Z,4.90
2018-08-22T23:46:14.732Z,4.90
2018-08-22T23:48:44.831Z,5.47
2018-08-22T23:51:15.251Z,5.53
2018-08-22T23:53:48.708Z,5.30
2018-08-22T23:56:25.247Z,4.97
2018-08-22T23:58:55.487Z,5.50
